sensor_id;sensor_type;location;lat;lon;timestamp;pressure;altitude;pressure_sealevel;temperature;humidity
74079;BME280;62437;51.544;-3.276;2023-03-25T00:02:11;99235.62;;;4.56;76.26
74079;BME280;62437;51.544;-3.276;2023-03-25T00:04:37;99255.12;;;4.84;76.21
74079;BME280;62437;51.544;-3.276;2023-03-25T00:07:03;99242.04;;;5.71;73.70
74079;BME280;62437;51.544;-3.276;2023-03-25T00:09:28;99244.15;;;6.17;71.85
74079;BME280;62437;51.544;-3.276;2023-03-25T00:11:54;99247.55;;;5.96;72.39
74079;BME280;62437;51.544;-3.276;2023-03-25T00:14:20;99274.63;;;4.57;76.30
74079;BME280;62437;51.544;-3.276;2023-03-25T00:16:45;99264.46;;;4.72;76.56
74079;BME280;62437;51.544;-3.276;2023-03-25T00:19:11;99274.03;;;4.88;72.70
74079;BME280;62437;51.544;-3.276;2023-03-25T00:21:37;99283.17;;;4.13;74.60
74079;BME280;62437;51.544;-3.276;2023-03-25T00:24:03;99293.94;;;4.93;72.47
74079;BME280;62437;51.544;-3.276;2023-03-25T00:26:28;99299.59;;;4.50;76.94
74079;BME280;62437;51.544;-3.276;2023-03-25T00:28:54;99305.52;;;4.67;76.90
74079;BME280;62437;51.544;-3.276;2023-03-25T00:31:20;99314.72;;;4.82;76.16
74079;BME280;62437;51.544;-3.276;2023-03-25T00:33:46;99320.18;;;4.55;76.86
74079;BME280;62437;51.544;-3.276;2023-03-25T00:36:12;99300.47;;;5.13;75.74
74079;BME280;62437;51.544;-3.276;2023-03-25T00:38:37;99290.07;;;4.99;74.48
74079;BME280;62437;51.544;-3.276;2023-03-25T00:41:10;99304.90;;;5.49;73.44
74079;BME280;62437;51.544;-3.276;2023-03-25T00:43:28;99304.18;;;5.99;71.59
74079;BME280;62437;51.544;-3.276;2023-03-25T00:45:54;99302.41;;;5.63;73.72
74079;BME280;62437;51.544;-3.276;2023-03-25T00:48:20;99307.91;;;5.19;75.05
74079;BME280;62437;51.544;-3.276;2023-03-25T00:50:45;99289.79;;;5.34;75.06
74079;BME280;62437;51.544;-3.276;2023-03-25T00:53:11;99300.28;;;5.86;72.45
74079;BME280;62437;51.544;-3.276;2023-03-25T00:55:37;99310.75;;;6.46;70.14
74079;BME280;62437;51.544;-3.276;2023-03-25T00:58:03;99298.01;;;6.26;72.39
74079;BME280;62437;51.544;-3.276;2023-03-25T01:00:28;99288.56;;;5.87;73.65
74079;BME280;62437;51.544;-3.276;2023-03-25T01:02:54;99297.23;;;5.34;75.31
74079;BME280;62437;51.544;-3.276;2023-03-25T01:05:20;99316.15;;;4.88;77.61
74079;BME280;62437;51.544;-3.276;2023-03-25T01:07:46;99309.26;;;5.41;75.07
74079;BME280;62437;51.544;-3.276;2023-03-25T01:10:11;99304.57;;;6.55;70.83
74079;BME280;62437;51.544;-3.276;2023-03-25T01:12:37;99324.65;;;4.81;77.71
74079;BME280;62437;51.544;-3.276;2023-03-25T01:15:03;99308.52;;;6.17;72.73
74079;BME280;62437;51.544;-3.276;2023-03-25T01:17:28;99311.11;;;4.78;77.83
74079;BME280;62437;51.544;-3.276;2023-03-25T01:19:54;99311.04;;;5.55;75.80
74079;BME280;62437;51.544;-3.276;2023-03-25T01:22:20;99321.67;;;5.60;74.53
74079;BME280;62437;51.544;-3.276;2023-03-25T01:24:45;99317.38;;;5.63;75.52
74079;BME280;62437;51.544;-3.276;2023-03-25T01:27:11;99332.05;;;4.58;77.95
74079;BME280;62437;51.544;-3.276;2023-03-25T01:29:37;99326.97;;;5.17;77.25
74079;BME280;62437;51.544;-3.276;2023-03-25T01:32:03;99333.15;;;4.74;77.57
74079;BME280;62437;51.544;-3.276;2023-03-25T01:34:31;99319.04;;;5.41;75.31
74079;BME280;62437;51.544;-3.276;2023-03-25T01:36:54;99324.53;;;6.00;73.81
74079;BME280;62437;51.544;-3.276;2023-03-25T01:39:20;99348.65;;;5.25;76.06
74079;BME280;62437;51.544;-3.276;2023-03-25T01:41:47;99327.90;;;5.14;76.47
74079;BME280;62437;51.544;-3.276;2023-03-25T01:46:37;99342.23;;;5.80;73.96
74079;BME280;62437;51.544;-3.276;2023-03-25T01:49:05;99352.31;;;5.16;76.22
74079;BME280;62437;51.544;-3.276;2023-03-25T01:51:30;99354.69;;;5.57;75.23
74079;BME280;62437;51.544;-3.276;2023-03-25T01:53:54;99357.57;;;5.21;75.88
74079;BME280;62437;51.544;-3.276;2023-03-25T01:56:24;99351.75;;;5.45;74.19
74079;BME280;62437;51.544;-3.276;2023-03-25T01:58:46;99357.61;;;6.05;72.25
74079;BME280;62437;51.544;-3.276;2023-03-25T02:01:11;99369.92;;;6.17;72.66
74079;BME280;62437;51.544;-3.276;2023-03-25T02:03:37;99361.99;;;5.49;73.62
74079;BME280;62437;51.544;-3.276;2023-03-25T02:06:06;99372.60;;;5.70;73.96
74079;BME280;62437;51.544;-3.276;2023-03-25T02:08:30;99371.64;;;5.03;77.02
74079;BME280;62437;51.544;-3.276;2023-03-25T02:10:54;99382.37;;;5.01;75.59
74079;BME280;62437;51.544;-3.276;2023-03-25T02:13:20;99384.98;;;4.68;78.24
74079;BME280;62437;51.544;-3.276;2023-03-25T02:15:59;99382.65;;;4.39;79.24
74079;BME280;62437;51.544;-3.276;2023-03-25T02:18:24;99374.93;;;6.17;72.79
74079;BME280;62437;51.544;-3.276;2023-03-25T02:20:48;99373.28;;;5.96;73.48
74079;BME280;62437;51.544;-3.276;2023-03-25T02:25:38;99374.76;;;4.31;79.01
74079;BME280;62437;51.544;-3.276;2023-03-25T02:28:02;99393.78;;;4.96;76.60
74079;BME280;62437;51.544;-3.276;2023-03-25T02:30:35;99392.54;;;5.65;74.88
74079;BME280;62437;51.544;-3.276;2023-03-25T02:35:23;99397.73;;;4.73;77.82
74079;BME280;62437;51.544;-3.276;2023-03-25T02:37:52;99396.34;;;5.26;76.16
74079;BME280;62437;51.544;-3.276;2023-03-25T02:40:06;99390.39;;;5.78;76.06
74079;BME280;62437;51.544;-3.276;2023-03-25T02:42:33;99386.23;;;5.04;78.27
74079;BME280;62437;51.544;-3.276;2023-03-25T02:44:57;99404.14;;;5.33;77.39
74079;BME280;62437;51.544;-3.276;2023-03-25T02:47:23;99407.64;;;5.09;77.39
74079;BME280;62437;51.544;-3.276;2023-03-25T02:49:49;99441.21;;;5.97;73.42
74079;BME280;62437;51.544;-3.276;2023-03-25T02:52:14;99425.57;;;4.27;80.66
74079;BME280;62437;51.544;-3.276;2023-03-25T02:54:38;99425.25;;;5.16;77.28
74079;BME280;62437;51.544;-3.276;2023-03-25T02:57:03;99423.29;;;5.16;77.98
74079;BME280;62437;51.544;-3.276;2023-03-25T02:59:29;99430.30;;;5.30;75.63
74079;BME280;62437;51.544;-3.276;2023-03-25T03:01:55;99417.98;;;5.20;77.97
74079;BME280;62437;51.544;-3.276;2023-03-25T03:04:19;99433.69;;;4.52;80.93
74079;BME280;62437;51.544;-3.276;2023-03-25T03:06:45;99439.79;;;4.54;81.96
74079;BME280;62437;51.544;-3.276;2023-03-25T03:09:23;99437.47;;;5.32;78.50
74079;BME280;62437;51.544;-3.276;2023-03-25T03:11:42;99433.25;;;5.02;78.54
74079;BME280;62437;51.544;-3.276;2023-03-25T03:14:13;99449.52;;;5.34;77.88
74079;BME280;62437;51.544;-3.276;2023-03-25T03:16:35;99450.96;;;4.91;78.23
74079;BME280;62437;51.544;-3.276;2023-03-25T03:18:58;99437.58;;;4.94;78.83
74079;BME280;62437;51.544;-3.276;2023-03-25T03:21:22;99451.01;;;4.37;81.02
74079;BME280;62437;51.544;-3.276;2023-03-25T03:23:51;99455.98;;;5.27;77.89
74079;BME280;62437;51.544;-3.276;2023-03-25T03:26:18;99449.35;;;4.48;81.04
74079;BME280;62437;51.544;-3.276;2023-03-25T03:28:43;99453.05;;;4.86;78.27
74079;BME280;62437;51.544;-3.276;2023-03-25T03:31:05;99456.35;;;4.87;78.66
74079;BME280;62437;51.544;-3.276;2023-03-25T03:33:32;99455.78;;;4.32;83.41
74079;BME280;62437;51.544;-3.276;2023-03-25T03:35:57;99450.76;;;4.34;80.51
74079;BME280;62437;51.544;-3.276;2023-03-25T03:38:23;99453.95;;;4.96;79.76
74079;BME280;62437;51.544;-3.276;2023-03-25T03:40:50;99460.47;;;5.12;77.93
74079;BME280;62437;51.544;-3.276;2023-03-25T03:43:15;99458.65;;;4.26;80.44
74079;BME280;62437;51.544;-3.276;2023-03-25T03:45:39;99452.53;;;5.00;78.48
74079;BME280;62437;51.544;-3.276;2023-03-25T03:48:06;99457.76;;;4.10;80.42
74079;BME280;62437;51.544;-3.276;2023-03-25T03:50:31;99450.98;;;5.17;76.09
74079;BME280;62437;51.544;-3.276;2023-03-25T03:53:00;99447.74;;;5.18;76.17
74079;BME280;62437;51.544;-3.276;2023-03-25T03:55:23;99449.10;;;4.11;81.04
74079;BME280;62437;51.544;-3.276;2023-03-25T03:57:48;99451.58;;;5.24;75.89
74079;BME280;62437;51.544;-3.276;2023-03-25T04:00:16;99445.38;;;5.04;77.29
74079;BME280;62437;51.544;-3.276;2023-03-25T04:02:39;99483.77;;;5.81;74.06
74079;BME280;62437;51.544;-3.276;2023-03-25T04:05:03;99455.06;;;4.68;79.98
74079;BME280;62437;51.544;-3.276;2023-03-25T04:07:33;99453.39;;;5.24;76.20
74079;BME280;62437;51.544;-3.276;2023-03-25T04:09:58;99461.11;;;4.39;80.64
74079;BME280;62437;51.544;-3.276;2023-03-25T04:12:23;99462.12;;;3.90;81.89
74079;BME280;62437;51.544;-3.276;2023-03-25T04:14:46;99461.55;;;4.53;80.48
74079;BME280;62437;51.544;-3.276;2023-03-25T04:17:12;99468.07;;;5.43;76.34
74079;BME280;62437;51.544;-3.276;2023-03-25T04:19:37;99473.73;;;5.14;77.88
74079;BME280;62437;51.544;-3.276;2023-03-25T04:22:04;99481.67;;;6.08;73.85
74079;BME280;62437;51.544;-3.276;2023-03-25T04:24:29;99458.84;;;5.37;76.67
74079;BME280;62437;51.544;-3.276;2023-03-25T04:26:54;99467.17;;;5.10;77.15
74079;BME280;62437;51.544;-3.276;2023-03-25T04:29:20;99468.83;;;4.80;77.71
74079;BME280;62437;51.544;-3.276;2023-03-25T04:31:45;99471.79;;;4.90;78.67
74079;BME280;62437;51.544;-3.276;2023-03-25T04:34:12;99470.63;;;5.04;77.65
74079;BME280;62437;51.544;-3.276;2023-03-25T04:36:37;99472.78;;;5.12;75.91
74079;BME280;62437;51.544;-3.276;2023-03-25T04:39:03;99465.80;;;4.30;78.94
74079;BME280;62437;51.544;-3.276;2023-03-25T04:41:28;99486.18;;;4.89;77.31
74079;BME280;62437;51.544;-3.276;2023-03-25T04:43:54;99490.54;;;4.49;78.66
74079;BME280;62437;51.544;-3.276;2023-03-25T04:46:20;99492.55;;;5.02;77.97
74079;BME280;62437;51.544;-3.276;2023-03-25T04:48:46;99506.56;;;4.74;80.32
74079;BME280;62437;51.544;-3.276;2023-03-25T04:51:12;99501.25;;;5.23;76.05
74079;BME280;62437;51.544;-3.276;2023-03-25T04:53:37;99513.03;;;5.28;76.36
74079;BME280;62437;51.544;-3.276;2023-03-25T04:56:03;99513.52;;;4.75;79.17
74079;BME280;62437;51.544;-3.276;2023-03-25T04:58:28;99541.93;;;3.94;81.37
74079;BME280;62437;51.544;-3.276;2023-03-25T05:00:54;99524.04;;;4.40;80.35
74079;BME280;62437;51.544;-3.276;2023-03-25T05:03:20;99519.59;;;4.63;78.24
74079;BME280;62437;51.544;-3.276;2023-03-25T05:05:45;99527.88;;;4.38;81.26
74079;BME280;62437;51.544;-3.276;2023-03-25T05:08:11;99529.25;;;4.69;79.33
74079;BME280;62437;51.544;-3.276;2023-03-25T05:10:37;99550.86;;;4.24;79.23
74079;BME280;62437;51.544;-3.276;2023-03-25T05:13:04;99537.84;;;5.86;73.53
74079;BME280;62437;51.544;-3.276;2023-03-25T05:15:30;99544.81;;;5.37;76.07
74079;BME280;62437;51.544;-3.276;2023-03-25T05:17:54;99555.53;;;4.12;79.67
74079;BME280;62437;51.544;-3.276;2023-03-25T05:20:20;99563.26;;;4.82;78.96
74079;BME280;62437;51.544;-3.276;2023-03-25T05:22:45;99552.59;;;4.70;80.18
74079;BME280;62437;51.544;-3.276;2023-03-25T05:25:11;99559.15;;;5.02;77.65
74079;BME280;62437;51.544;-3.276;2023-03-25T05:27:37;99563.63;;;5.35;76.31
74079;BME280;62437;51.544;-3.276;2023-03-25T05:30:04;99571.34;;;4.59;79.15
74079;BME280;62437;51.544;-3.276;2023-03-25T05:32:29;99574.25;;;4.92;77.99
74079;BME280;62437;51.544;-3.276;2023-03-25T05:34:54;99569.73;;;5.56;75.83
74079;BME280;62437;51.544;-3.276;2023-03-25T05:37:20;99583.84;;;5.99;73.89
74079;BME280;62437;51.544;-3.276;2023-03-25T05:39:45;99582.98;;;6.02;72.37
74079;BME280;62437;51.544;-3.276;2023-03-25T05:42:11;99591.32;;;6.61;69.98
74079;BME280;62437;51.544;-3.276;2023-03-25T05:44:37;99605.07;;;4.60;79.74
74079;BME280;62437;51.544;-3.276;2023-03-25T05:47:03;99603.96;;;5.30;75.57
74079;BME280;62437;51.544;-3.276;2023-03-25T05:49:28;99611.50;;;5.13;77.25
74079;BME280;62437;51.544;-3.276;2023-03-25T05:51:54;99608.16;;;4.38;80.35
74079;BME280;62437;51.544;-3.276;2023-03-25T05:54:20;99588.06;;;5.70;74.60
74079;BME280;62437;51.544;-3.276;2023-03-25T05:56:45;99610.86;;;7.00;69.60
74079;BME280;62437;51.544;-3.276;2023-03-25T05:59:11;99609.01;;;6.98;68.56
74079;BME280;62437;51.544;-3.276;2023-03-25T06:01:37;99622.16;;;6.20;70.52
74079;BME280;62437;51.544;-3.276;2023-03-25T06:04:03;99633.53;;;5.73;73.41
74079;BME280;62437;51.544;-3.276;2023-03-25T06:06:29;99635.06;;;5.40;75.73
74079;BME280;62437;51.544;-3.276;2023-03-25T06:08:54;99644.56;;;6.24;73.08
74079;BME280;62437;51.544;-3.276;2023-03-25T06:11:20;99639.20;;;5.98;72.96
74079;BME280;62437;51.544;-3.276;2023-03-25T06:13:46;99643.41;;;5.48;74.54
74079;BME280;62437;51.544;-3.276;2023-03-25T06:16:11;99653.48;;;6.28;71.72
74079;BME280;62437;51.544;-3.276;2023-03-25T06:18:37;99664.92;;;5.18;76.23
74079;BME280;62437;51.544;-3.276;2023-03-25T06:21:03;99661.06;;;5.77;72.66
74079;BME280;62437;51.544;-3.276;2023-03-25T06:23:28;99668.61;;;6.41;71.15
74079;BME280;62437;51.544;-3.276;2023-03-25T06:25:54;99671.17;;;4.29;77.94
74079;BME280;62437;51.544;-3.276;2023-03-25T06:28:20;99678.15;;;5.01;77.03
74079;BME280;62437;51.544;-3.276;2023-03-25T06:30:46;99673.50;;;6.01;71.81
74079;BME280;62437;51.544;-3.276;2023-03-25T06:33:11;99677.06;;;6.20;71.83
74079;BME280;62437;51.544;-3.276;2023-03-25T06:35:37;99683.81;;;6.23;70.32
74079;BME280;62437;51.544;-3.276;2023-03-25T06:38:02;99684.55;;;6.12;70.33
74079;BME280;62437;51.544;-3.276;2023-03-25T06:40:28;99690.51;;;5.74;71.62
74079;BME280;62437;51.544;-3.276;2023-03-25T06:42:54;99693.22;;;6.09;71.87
74079;BME280;62437;51.544;-3.276;2023-03-25T06:45:20;99704.07;;;6.43;69.84
74079;BME280;62437;51.544;-3.276;2023-03-25T06:47:45;99707.11;;;6.13;71.55
74079;BME280;62437;51.544;-3.276;2023-03-25T06:50:11;99703.74;;;5.81;71.98
74079;BME280;62437;51.544;-3.276;2023-03-25T06:52:37;99711.73;;;5.83;71.96
74079;BME280;62437;51.544;-3.276;2023-03-25T06:55:03;99716.08;;;5.97;71.12
74079;BME280;62437;51.544;-3.276;2023-03-25T06:57:28;99721.16;;;7.30;69.13
74079;BME280;62437;51.544;-3.276;2023-03-25T06:59:54;99729.06;;;5.03;76.02
74079;BME280;62437;51.544;-3.276;2023-03-25T07:02:20;99716.28;;;6.20;72.03
74079;BME280;62437;51.544;-3.276;2023-03-25T07:04:45;99734.78;;;6.03;74.04
74079;BME280;62437;51.544;-3.276;2023-03-25T07:07:11;99732.62;;;5.73;74.78
74079;BME280;62437;51.544;-3.276;2023-03-25T07:09:37;99734.60;;;5.94;74.99
74079;BME280;62437;51.544;-3.276;2023-03-25T07:12:03;99732.84;;;5.95;74.15
74079;BME280;62437;51.544;-3.276;2023-03-25T07:14:28;99737.72;;;5.19;77.09
74079;BME280;62437;51.544;-3.276;2023-03-25T07:16:54;99733.76;;;5.34;78.33
74079;BME280;62437;51.544;-3.276;2023-03-25T07:19:20;99739.83;;;4.77;79.75
74079;BME280;62437;51.544;-3.276;2023-03-25T07:21:45;99739.40;;;5.96;74.63
74079;BME280;62437;51.544;-3.276;2023-03-25T07:24:11;99740.38;;;6.51;73.25
74079;BME280;62437;51.544;-3.276;2023-03-25T07:26:37;99740.79;;;5.91;74.85
74079;BME280;62437;51.544;-3.276;2023-03-25T07:29:02;99750.43;;;6.43;72.97
74079;BME280;62437;51.544;-3.276;2023-03-25T07:31:28;99757.03;;;6.41;73.08
74079;BME280;62437;51.544;-3.276;2023-03-25T07:33:54;99751.57;;;6.51;73.31
74079;BME280;62437;51.544;-3.276;2023-03-25T07:36:19;99755.24;;;6.87;72.54
74079;BME280;62437;51.544;-3.276;2023-03-25T07:38:45;99762.97;;;6.08;74.36
74079;BME280;62437;51.544;-3.276;2023-03-25T07:41:12;99769.62;;;5.73;75.92
74079;BME280;62437;51.544;-3.276;2023-03-25T07:43:37;99782.74;;;5.34;77.89
74079;BME280;62437;51.544;-3.276;2023-03-25T07:46:02;99780.77;;;5.86;75.30
74079;BME280;62437;51.544;-3.276;2023-03-25T07:48:28;99769.34;;;6.76;72.43
74079;BME280;62437;51.544;-3.276;2023-03-25T07:50:54;99771.63;;;6.88;71.87
74079;BME280;62437;51.544;-3.276;2023-03-25T07:53:19;99766.31;;;6.41;74.52
74079;BME280;62437;51.544;-3.276;2023-03-25T07:55:45;99789.32;;;6.10;75.92
74079;BME280;62437;51.544;-3.276;2023-03-25T07:58:11;99796.95;;;5.13;78.20
74079;BME280;62437;51.544;-3.276;2023-03-25T08:00:37;99801.41;;;6.80;73.08
74079;BME280;62437;51.544;-3.276;2023-03-25T08:03:02;99801.09;;;6.48;74.11
74079;BME280;62437;51.544;-3.276;2023-03-25T08:05:28;99793.85;;;5.30;78.97
74079;BME280;62437;51.544;-3.276;2023-03-25T08:07:53;99799.68;;;5.45;78.62
74079;BME280;62437;51.544;-3.276;2023-03-25T08:10:20;99809.10;;;6.15;77.43
74079;BME280;62437;51.544;-3.276;2023-03-25T08:12:45;99805.19;;;4.71;81.61
74079;BME280;62437;51.544;-3.276;2023-03-25T08:15:12;99802.86;;;5.39;79.41
74079;BME280;62437;51.544;-3.276;2023-03-25T08:17:36;99811.49;;;6.28;75.01
74079;BME280;62437;51.544;-3.276;2023-03-25T08:20:02;99817.46;;;6.05;75.55
74079;BME280;62437;51.544;-3.276;2023-03-25T08:22:27;99814.77;;;5.83;78.14
74079;BME280;62437;51.544;-3.276;2023-03-25T08:24:53;99828.24;;;6.26;75.96
74079;BME280;62437;51.544;-3.276;2023-03-25T08:27:19;99819.91;;;5.17;80.18
74079;BME280;62437;51.544;-3.276;2023-03-25T08:29:45;99827.63;;;5.31;78.89
74079;BME280;62437;51.544;-3.276;2023-03-25T08:32:10;99823.91;;;5.62;78.61
74079;BME280;62437;51.544;-3.276;2023-03-25T08:34:36;99824.19;;;6.92;73.92
74079;BME280;62437;51.544;-3.276;2023-03-25T08:37:02;99830.61;;;5.51;77.38
74079;BME280;62437;51.544;-3.276;2023-03-25T08:39:27;99827.43;;;6.74;74.27
74079;BME280;62437;51.544;-3.276;2023-03-25T08:41:53;99831.54;;;6.96;73.33
74079;BME280;62437;51.544;-3.276;2023-03-25T08:44:19;99838.25;;;6.74;73.57
74079;BME280;62437;51.544;-3.276;2023-03-25T08:46:44;99839.97;;;7.27;72.53
74079;BME280;62437;51.544;-3.276;2023-03-25T08:49:10;99844.00;;;5.91;76.75
74079;BME280;62437;51.544;-3.276;2023-03-25T08:51:36;99844.88;;;7.37;72.20
74079;BME280;62437;51.544;-3.276;2023-03-25T08:54:02;99839.45;;;7.38;71.97
74079;BME280;62437;51.544;-3.276;2023-03-25T08:56:27;99867.44;;;6.03;76.86
74079;BME280;62437;51.544;-3.276;2023-03-25T08:58:53;99864.40;;;5.85;77.52
74079;BME280;62437;51.544;-3.276;2023-03-25T09:01:18;99865.89;;;6.11;77.03
74079;BME280;62437;51.544;-3.276;2023-03-25T09:03:44;99865.04;;;6.13;75.08
74079;BME280;62437;51.544;-3.276;2023-03-25T09:06:10;99868.42;;;6.00;76.79
74079;BME280;62437;51.544;-3.276;2023-03-25T09:08:36;99870.46;;;7.24;73.61
74079;BME280;62437;51.544;-3.276;2023-03-25T09:11:01;99874.47;;;7.46;71.97
74079;BME280;62437;51.544;-3.276;2023-03-25T09:13:27;99876.70;;;6.34;75.94
74079;BME280;62437;51.544;-3.276;2023-03-25T09:15:53;99885.16;;;6.58;75.41
74079;BME280;62437;51.544;-3.276;2023-03-25T09:18:18;99887.02;;;5.66;77.43
74079;BME280;62437;51.544;-3.276;2023-03-25T09:20:44;99892.39;;;7.18;74.15
74079;BME280;62437;51.544;-3.276;2023-03-25T09:23:10;99894.89;;;7.32;73.88
74079;BME280;62437;51.544;-3.276;2023-03-25T09:25:36;99890.06;;;7.16;73.89
74079;BME280;62437;51.544;-3.276;2023-03-25T09:28:01;99899.14;;;6.80;74.61
74079;BME280;62437;51.544;-3.276;2023-03-25T09:30:27;99902.77;;;6.18;74.09
74079;BME280;62437;51.544;-3.276;2023-03-25T09:32:52;99909.25;;;6.25;76.70
74079;BME280;62437;51.544;-3.276;2023-03-25T09:35:18;99911.99;;;6.20;77.55
74079;BME280;62437;51.544;-3.276;2023-03-25T09:37:44;99911.93;;;5.91;76.41
74079;BME280;62437;51.544;-3.276;2023-03-25T09:40:12;99925.94;;;6.40;77.28
74079;BME280;62437;51.544;-3.276;2023-03-25T09:42:43;99913.88;;;5.70;80.76
74079;BME280;62437;51.544;-3.276;2023-03-25T09:45:06;99914.07;;;5.49;79.17
74079;BME280;62437;51.544;-3.276;2023-03-25T09:47:28;99914.63;;;5.45;82.05
74079;BME280;62437;51.544;-3.276;2023-03-25T09:49:56;99931.87;;;6.41;76.71
74079;BME280;62437;51.544;-3.276;2023-03-25T09:52:23;99928.54;;;7.24;73.43
74079;BME280;62437;51.544;-3.276;2023-03-25T09:54:47;99938.17;;;8.42;70.15
74079;BME280;62437;51.544;-3.276;2023-03-25T09:57:13;99950.04;;;5.55;77.38
74079;BME280;62437;51.544;-3.276;2023-03-25T09:59:40;99949.47;;;6.88;75.13
74079;BME280;62437;51.544;-3.276;2023-03-25T10:02:05;99947.34;;;7.77;73.17
74079;BME280;62437;51.544;-3.276;2023-03-25T10:04:44;99949.31;;;7.79;71.03
74079;BME280;62437;51.544;-3.276;2023-03-25T10:06:55;99954.10;;;6.15;76.53
74079;BME280;62437;51.544;-3.276;2023-03-25T10:09:31;99960.25;;;5.62;78.10
74079;BME280;62437;51.544;-3.276;2023-03-25T10:11:48;99970.64;;;6.30;77.36
74079;BME280;62437;51.544;-3.276;2023-03-25T10:14:11;99961.75;;;6.33;76.92
74079;BME280;62437;51.544;-3.276;2023-03-25T10:16:43;99976.01;;;7.10;73.92
74079;BME280;62437;51.544;-3.276;2023-03-25T10:19:14;99977.85;;;7.85;73.00
74079;BME280;62437;51.544;-3.276;2023-03-25T10:21:34;99990.86;;;7.14;73.07
74079;BME280;62437;51.544;-3.276;2023-03-25T10:23:59;99994.52;;;8.44;70.54
74079;BME280;62437;51.544;-3.276;2023-03-25T10:26:20;99992.09;;;6.03;77.78
74079;BME280;62437;51.544;-3.276;2023-03-25T10:28:50;99994.05;;;7.11;75.19
74079;BME280;62437;51.544;-3.276;2023-03-25T10:31:14;99999.43;;;6.75;76.57
74079;BME280;62437;51.544;-3.276;2023-03-25T10:33:36;99998.77;;;6.18;77.09
74079;BME280;62437;51.544;-3.276;2023-03-25T10:36:01;99995.33;;;6.54;77.55
74079;BME280;62437;51.544;-3.276;2023-03-25T10:38:27;99999.81;;;6.57;76.96
74079;BME280;62437;51.544;-3.276;2023-03-25T10:40:57;100005.75;;;6.91;72.82
74079;BME280;62437;51.544;-3.276;2023-03-25T10:43:24;100002.41;;;6.56;77.31
74079;BME280;62437;51.544;-3.276;2023-03-25T10:45:44;100008.05;;;7.33;73.21
74079;BME280;62437;51.544;-3.276;2023-03-25T10:48:12;100012.57;;;7.12;71.31
74079;BME280;62437;51.544;-3.276;2023-03-25T10:50:35;100010.97;;;7.87;70.85
74079;BME280;62437;51.544;-3.276;2023-03-25T10:53:00;100000.72;;;7.81;73.04
74079;BME280;62437;51.544;-3.276;2023-03-25T10:55:29;100022.02;;;8.05;74.20
74079;BME280;62437;51.544;-3.276;2023-03-25T10:57:52;100016.95;;;7.31;73.10
74079;BME280;62437;51.544;-3.276;2023-03-25T11:00:18;100015.55;;;8.22;72.15
74079;BME280;62437;51.544;-3.276;2023-03-25T11:02:43;100011.95;;;8.27;69.55
74079;BME280;62437;51.544;-3.276;2023-03-25T11:05:09;100023.29;;;7.82;72.40
74079;BME280;62437;51.544;-3.276;2023-03-25T11:07:35;100021.62;;;7.08;71.61
74079;BME280;62437;51.544;-3.276;2023-03-25T11:10:13;100020.02;;;8.40;70.61
74079;BME280;62437;51.544;-3.276;2023-03-25T11:12:25;100028.09;;;7.76;70.03
74079;BME280;62437;51.544;-3.276;2023-03-25T11:14:54;100021.75;;;7.78;69.45
74079;BME280;62437;51.544;-3.276;2023-03-25T11:17:17;100028.26;;;8.57;68.44
74079;BME280;62437;51.544;-3.276;2023-03-25T11:19:46;100032.21;;;8.39;70.21
74079;BME280;62437;51.544;-3.276;2023-03-25T11:22:12;100036.72;;;7.53;67.67
74079;BME280;62437;51.544;-3.276;2023-03-25T11:24:39;100039.19;;;7.65;71.49
74079;BME280;62437;51.544;-3.276;2023-03-25T11:27:00;100035.59;;;7.79;67.89
74079;BME280;62437;51.544;-3.276;2023-03-25T11:29:26;100048.19;;;7.86;71.32
74079;BME280;62437;51.544;-3.276;2023-03-25T11:32:03;100051.83;;;7.78;73.39
74079;BME280;62437;51.544;-3.276;2023-03-25T11:34:19;100048.05;;;7.65;71.38
74079;BME280;62437;51.544;-3.276;2023-03-25T11:36:48;100044.56;;;6.93;71.01
74079;BME280;62437;51.544;-3.276;2023-03-25T11:39:15;100048.99;;;6.99;69.20
74079;BME280;62437;51.544;-3.276;2023-03-25T11:41:35;100037.13;;;8.40;72.35
74079;BME280;62437;51.544;-3.276;2023-03-25T11:44:00;100063.69;;;7.84;68.60
74079;BME280;62437;51.544;-3.276;2023-03-25T11:46:24;100045.98;;;7.28;69.99
74079;BME280;62437;51.544;-3.276;2023-03-25T11:48:50;100048.29;;;7.55;71.65
74079;BME280;62437;51.544;-3.276;2023-03-25T11:51:20;100060.65;;;8.48;69.69
74079;BME280;62437;51.544;-3.276;2023-03-25T11:53:45;100036.16;;;9.51;68.36
74079;BME280;62437;51.544;-3.276;2023-03-25T11:56:10;100043.69;;;8.53;68.24
74079;BME280;62437;51.544;-3.276;2023-03-25T11:58:35;100035.06;;;8.85;65.68
74079;BME280;62437;51.544;-3.276;2023-03-25T12:01:01;100044.12;;;8.23;66.64
74079;BME280;62437;51.544;-3.276;2023-03-25T12:03:26;100044.14;;;8.30;68.63
74079;BME280;62437;51.544;-3.276;2023-03-25T12:05:58;100045.45;;;9.01;65.65
74079;BME280;62437;51.544;-3.276;2023-03-25T12:08:16;100047.92;;;9.05;64.56
74079;BME280;62437;51.544;-3.276;2023-03-25T12:10:50;100042.02;;;8.71;65.59
74079;BME280;62437;51.544;-3.276;2023-03-25T12:13:11;100042.53;;;8.91;61.62
74079;BME280;62437;51.544;-3.276;2023-03-25T12:15:37;100028.01;;;9.60;65.68
74079;BME280;62437;51.544;-3.276;2023-03-25T12:18:08;100035.14;;;9.37;62.56
74079;BME280;62437;51.544;-3.276;2023-03-25T12:20:29;100030.41;;;9.66;65.22
74079;BME280;62437;51.544;-3.276;2023-03-25T12:22:59;100035.69;;;8.54;63.94
74079;BME280;62437;51.544;-3.276;2023-03-25T12:25:23;100044.16;;;8.81;63.86
74079;BME280;62437;51.544;-3.276;2023-03-25T12:27:51;100045.81;;;8.41;65.05
74079;BME280;62437;51.544;-3.276;2023-03-25T12:30:16;100049.00;;;8.57;64.40
74079;BME280;62437;51.544;-3.276;2023-03-25T12:32:37;100041.96;;;9.60;66.53
74079;BME280;62437;51.544;-3.276;2023-03-25T12:35:08;100040.67;;;9.24;65.64
74079;BME280;62437;51.544;-3.276;2023-03-25T12:37:30;100049.12;;;8.34;63.69
74079;BME280;62437;51.544;-3.276;2023-03-25T12:40:00;100045.99;;;8.45;63.61
74079;BME280;62437;51.544;-3.276;2023-03-25T12:42:26;100053.30;;;8.86;66.45
74079;BME280;62437;51.544;-3.276;2023-03-25T12:44:49;100058.08;;;8.31;63.52
74079;BME280;62437;51.544;-3.276;2023-03-25T12:47:15;100065.07;;;9.21;63.73
74079;BME280;62437;51.544;-3.276;2023-03-25T12:49:44;100066.34;;;8.38;65.06
74079;BME280;62437;51.544;-3.276;2023-03-25T12:52:03;100049.87;;;9.05;68.27
74079;BME280;62437;51.544;-3.276;2023-03-25T12:54:34;100050.13;;;8.78;61.41
74079;BME280;62437;51.544;-3.276;2023-03-25T12:56:56;100052.32;;;9.04;65.04